• Join FlightAware (Why Join?)
  • Login
  • US Flag 
Trick or treat! (Boo!!) 
05:37PM EDT


 

Airport Tracker/Info


-or-


 

Live Flight TrackerFlight Track Log ✈ JBU51 ✈ 27-Apr-2013 ✈ KBTV - KJFK

Flight Track Log - Related Links

Times and Time Zones

All times are in EDT time to prevent confusion due to time zone crossing. See the JBU51 flight status page for this flight to view local times or setup timezone preferences in your user account.

Time Position Orientation Groundspeed Altitude Reporting Facility
EDT Latitude Longitude Course Direction KTS MPH feet Rate Location/Type
11:11AM 44.3197 -73.1336 196° South 247 284 6,800  Level Boston Center
11:12AM 44.1444 -73.2709 195° South  Level FlightAware Approximate
11:12AM 44.2528 -73.1675 200° South 272 313 10,000  Level Boston Center
11:13AM 44.0634 -73.3011 194° South  Level FlightAware Approximate
11:13AM 44.1692 -73.2014 196° South 304 350 12,000  Level Boston Center
11:14AM 43.9818 -73.3283 194° South  Level FlightAware Approximate
11:14AM 44.0772 -73.2433 198° South 341 392 14,800  Level Boston Center
11:15AM 43.9004 -73.3565 196° South  Level FlightAware Approximate
11:15AM 43.9789 -73.2856 197° South 362 417 17,500  Level Boston Center
11:16AM 43.8198 -73.3889 196° South  Level FlightAware Approximate
11:16AM 43.8786 -73.3300 198° South 375 432 19,400  Level Boston Center
11:17AM 43.7392 -73.4212 196° South  Level FlightAware Approximate
11:17AM 43.7761 -73.3747 197° South 387 445 21,500  Level Boston Center
11:18AM 43.6675 -73.4158 195° South 398 458 23,700 2,100 Climbing Boston Center
11:19AM 43.5586 -73.4628 197° South 404 465 25,800 1,800 Climbing Boston Center
11:20AM 43.4500 -73.5097 197° South 404 465 27,300 1,080 Climbing Boston Center
11:21AM 43.3347 -73.5561 196° South 409 471 28,000 300 Climbing Boston Center
11:22AM 43.2178 -73.6053 197° South 430 495 28,000  Level Boston Center
11:23AM 43.0878 -73.6625 198° South 448 516 28,000  Level Boston Center
11:24AM 42.9706 -73.7114 197° South 448 516 28,000  Level Boston Center
11:25AM 42.8658 -73.7572 198° South 448 516 28,000 -600 Level Boston Center
11:26AM 42.7486 -73.8028 196° South 442 509 26,900 -1,140 Descending Boston Center
11:27AM 42.6275 -73.8142 184° South 437 503 25,800 -1,140 Descending Boston Center
11:28AM 42.5047 -73.8144 180° South 425 489 24,700 -900 Descending Boston Center
11:29AM 42.3878 -73.8175 181° South 425 489 24,000 -360 Descending Boston Center
11:30AM 42.2733 -73.8150 179° South 420 483 24,000  Level Boston Center
11:31AM 42.1669 -73.8211 182° South 426 490 24,000  Level Boston Center
11:32AM 42.0539 -73.8606 195° South 426 490 24,000  Level Boston Center
11:34AM 41.8506 -73.9178 192° South 419 482 24,000  Level New York Center
11:35AM 41.7392 -73.9542 194° South 413 475 24,000  Level New York Center
11:36AM 41.6281 -73.9875 193° South 413 475 24,000 -1,020 Level New York Center
11:37AM 41.5039 -74.0286 194° South 413 475 22,000 -1,980 Descending New York Center
11:38AM 41.3972 -74.0539 190° South 408 470 20,100 -1,020 Descending New York Center
11:39AM 41.2883 -74.0706 187° South 403 464 20,000 -60 Descending New York Center
11:40AM 41.1817 -74.0903 188° South 398 458 20,000  Level New York Center
11:41AM 41.1167 -74.1000 186° South 387 445 20,000  Level New York TRACON
11:42AM 41.0167 -74.1167 187° South 388 447 20,000 -780 Level New York TRACON
11:43AM 40.9167 -74.0667 159° South 380 437 18,600 -1,020 Descending New York TRACON
11:44AM 40.8500 -73.9833 137° Southeast 340 391 18,000 -1,320 Descending New York TRACON
11:45AM 40.7833 -73.8667 127° Southeast 340 391 15,900 -1,800 Descending New York TRACON
11:46AM 40.7500 -73.7500 111° Southeast 340 391 14,300 -1,140 Descending New York TRACON
11:47AM 40.7333 -73.6500 102° East 339 390 13,700 -1,320 Descending New York TRACON
11:48AM 40.7333 -73.5333 90° East 304 350 11,700 -2,040 Descending New York TRACON
11:49AM 40.7333 -73.4333 90° East 297 342 9,700 -2,040 Descending New York TRACON
11:50AM 40.7333 -73.3333 90° East 291 335 7,900 -2,040 Descending New York TRACON
11:51AM 40.6667 -73.3333 180° South 287 330 5,900 -1,980 Descending New York TRACON
11:52AM 40.6000 -73.4000 217° Southwest 274 315 4,000 -1,500 Descending New York TRACON
11:53AM 40.5500 -73.4667 225° Southwest 266 306 3,000 -1,020 Descending New York TRACON
11:54AM 40.5500 -73.5667 270° West 253 291 2,000 -480 Descending New York TRACON
11:55AM 40.5833 -73.6333 303° West 197 227 2,000 -240 Level New York TRACON
11:56AM 40.6167 -73.6833 311° West 145 167 1,500 -600 Descending New York TRACON
11:57AM 40.6333 -73.7167 303° West 140 161 900 -660 Descending New York TRACON